Ironhills, Iowa
Current Conditions -  °F | °C
As of 11:53 AM on Tuesday 21 Oct 2014 (Local Time) from KDBQ Reporting Station
Clear Clear  
Wind Chill: 51°   Ceiling: Unl
Heat Index: 51°   Visibility: 10mi
Dew Point: 38°   Wind: 7mph
Humidity: 61%   Direction: 80°E
Pressure: 30.22"   Gusts: NA
Location:  42.12°N, 90.7234°W
Report Text: KDBQ 211653Z 08006KT 10SM CLR 11/03 A3022 RMK AO2 SLP236 T01060033
Loading
Personal Weather Stations






























Interactive Weather Map
Tropical Storm Tracking
New forecast layout! Learn more

10-Day Weather Forecast

Advertisements
Track Severe Weather on mobile